sensor_id;sensor_type;location;lat;lon;timestamp;P1;durP1;ratioP1;P2;durP2;ratioP2
49396;SDS011;35615;41.410;2.194;2022-07-22T00:01:04;17.52;;;9.35;;
49396;SDS011;35615;41.410;2.194;2022-07-22T00:03:34;12.25;;;9.15;;
49396;SDS011;35615;41.410;2.194;2022-07-22T00:06:02;14.18;;;9.63;;
49396;SDS011;35615;41.410;2.194;2022-07-22T00:08:29;16.88;;;8.77;;
49396;SDS011;35615;41.410;2.194;2022-07-22T00:10:57;15.80;;;9.13;;
49396;SDS011;35615;41.410;2.194;2022-07-22T00:13:30;17.08;;;8.18;;
49396;SDS011;35615;41.410;2.194;2022-07-22T00:16:00;13.90;;;8.98;;
49396;SDS011;35615;41.410;2.194;2022-07-22T00:18:30;12.60;;;8.98;;
49396;SDS011;35615;41.410;2.194;2022-07-22T00:21:05;13.18;;;8.43;;
49396;SDS011;35615;41.410;2.194;2022-07-22T00:23:39;17.05;;;9.18;;
49396;SDS011;35615;41.410;2.194;2022-07-22T00:26:09;15.98;;;9.32;;
49396;SDS011;35615;41.410;2.194;2022-07-22T00:28:41;11.47;;;8.67;;
49396;SDS011;35615;41.410;2.194;2022-07-22T00:31:09;15.38;;;9.50;;
49396;SDS011;35615;41.410;2.194;2022-07-22T00:33:37;15.43;;;9.55;;
49396;SDS011;35615;41.410;2.194;2022-07-22T00:36:15;19.25;;;9.10;;
49396;SDS011;35615;41.410;2.194;2022-07-22T00:38:45;19.42;;;9.10;;
49396;SDS011;35615;41.410;2.194;2022-07-22T00:41:17;19.83;;;8.88;;
49396;SDS011;35615;41.410;2.194;2022-07-22T00:44:00;13.18;;;9.65;;
49396;SDS011;35615;41.410;2.194;2022-07-22T00:46:31;12.45;;;8.52;;
49396;SDS011;35615;41.410;2.194;2022-07-22T00:49:08;14.32;;;9.30;;
49396;SDS011;35615;41.410;2.194;2022-07-22T00:51:36;13.07;;;8.70;;
49396;SDS011;35615;41.410;2.194;2022-07-22T00:54:09;14.82;;;9.85;;
49396;SDS011;35615;41.410;2.194;2022-07-22T00:56:37;17.90;;;9.23;;
49396;SDS011;35615;41.410;2.194;2022-07-22T00:59:10;17.58;;;9.63;;
49396;SDS011;35615;41.410;2.194;2022-07-22T01:02:37;13.90;;;9.20;;
49396;SDS011;35615;41.410;2.194;2022-07-22T01:05:30;22.33;;;9.65;;
49396;SDS011;35615;41.410;2.194;2022-07-22T01:08:43;15.40;;;9.25;;
49396;SDS011;35615;41.410;2.194;2022-07-22T01:11:35;15.88;;;8.85;;
49396;SDS011;35615;41.410;2.194;2022-07-22T01:14:42;20.63;;;9.27;;
49396;SDS011;35615;41.410;2.194;2022-07-22T01:17:52;17.92;;;9.13;;
49396;SDS011;35615;41.410;2.194;2022-07-22T01:21:09;18.40;;;9.80;;
49396;SDS011;35615;41.410;2.194;2022-07-22T01:24:38;17.80;;;9.80;;
49396;SDS011;35615;41.410;2.194;2022-07-22T01:30:41;21.58;;;10.10;;
49396;SDS011;35615;41.410;2.194;2022-07-22T01:33:31;20.08;;;10.48;;
49396;SDS011;35615;41.410;2.194;2022-07-22T01:36:37;15.68;;;8.75;;
49396;SDS011;35615;41.410;2.194;2022-07-22T01:39:18;15.93;;;10.15;;
49396;SDS011;35615;41.410;2.194;2022-07-22T01:42:32;16.75;;;10.05;;
49396;SDS011;35615;41.410;2.194;2022-07-22T01:45:20;14.37;;;9.27;;
49396;SDS011;35615;41.410;2.194;2022-07-22T01:48:20;17.63;;;9.82;;
49396;SDS011;35615;41.410;2.194;2022-07-22T01:51:17;22.05;;;10.15;;
49396;SDS011;35615;41.410;2.194;2022-07-22T01:54:26;14.02;;;9.85;;
49396;SDS011;35615;41.410;2.194;2022-07-22T01:57:20;27.00;;;10.18;;
49396;SDS011;35615;41.410;2.194;2022-07-22T02:02:57;16.50;;;9.95;;
49396;SDS011;35615;41.410;2.194;2022-07-22T02:05:38;18.42;;;10.38;;
49396;SDS011;35615;41.410;2.194;2022-07-22T02:08:24;17.77;;;9.52;;
49396;SDS011;35615;41.410;2.194;2022-07-22T02:11:14;17.38;;;10.60;;
49396;SDS011;35615;41.410;2.194;2022-07-22T02:13:56;20.33;;;11.23;;
49396;SDS011;35615;41.410;2.194;2022-07-22T02:16:30;14.95;;;9.45;;
49396;SDS011;35615;41.410;2.194;2022-07-22T02:19:04;17.75;;;9.93;;
49396;SDS011;35615;41.410;2.194;2022-07-22T02:21:35;15.40;;;9.23;;
49396;SDS011;35615;41.410;2.194;2022-07-22T02:24:13;15.85;;;9.90;;
49396;SDS011;35615;41.410;2.194;2022-07-22T02:29:24;16.98;;;10.15;;
49396;SDS011;35615;41.410;2.194;2022-07-22T02:31:52;19.80;;;10.25;;
49396;SDS011;35615;41.410;2.194;2022-07-22T02:34:26;28.98;;;11.18;;
49396;SDS011;35615;41.410;2.194;2022-07-22T02:36:58;20.60;;;10.43;;
49396;SDS011;35615;41.410;2.194;2022-07-22T02:39:30;19.20;;;10.68;;
49396;SDS011;35615;41.410;2.194;2022-07-22T02:42:06;19.25;;;10.65;;
49396;SDS011;35615;41.410;2.194;2022-07-22T02:44:38;21.25;;;11.05;;
49396;SDS011;35615;41.410;2.194;2022-07-22T02:47:16;22.98;;;10.70;;
49396;SDS011;35615;41.410;2.194;2022-07-22T02:49:48;28.58;;;11.30;;
49396;SDS011;35615;41.410;2.194;2022-07-22T02:52:24;13.60;;;9.40;;
49396;SDS011;35615;41.410;2.194;2022-07-22T02:54:58;27.02;;;11.35;;
49396;SDS011;35615;41.410;2.194;2022-07-22T02:57:32;19.70;;;10.43;;
49396;SDS011;35615;41.410;2.194;2022-07-22T03:00:07;20.75;;;10.27;;
49396;SDS011;35615;41.410;2.194;2022-07-22T03:02:39;16.38;;;10.20;;
49396;SDS011;35615;41.410;2.194;2022-07-22T03:05:08;15.30;;;10.70;;
49396;SDS011;35615;41.410;2.194;2022-07-22T03:07:43;17.10;;;11.27;;
49396;SDS011;35615;41.410;2.194;2022-07-22T03:10:13;18.38;;;10.35;;
49396;SDS011;35615;41.410;2.194;2022-07-22T03:12:41;16.58;;;9.73;;
49396;SDS011;35615;41.410;2.194;2022-07-22T03:15:13;20.77;;;10.73;;
49396;SDS011;35615;41.410;2.194;2022-07-22T03:17:42;23.25;;;11.15;;
49396;SDS011;35615;41.410;2.194;2022-07-22T03:20:10;23.95;;;11.40;;
49396;SDS011;35615;41.410;2.194;2022-07-22T03:22:38;13.75;;;10.73;;
49396;SDS011;35615;41.410;2.194;2022-07-22T03:25:05;18.88;;;10.23;;
49396;SDS011;35615;41.410;2.194;2022-07-22T03:27:33;16.42;;;10.48;;
49396;SDS011;35615;41.410;2.194;2022-07-22T03:30:01;19.25;;;10.13;;
49396;SDS011;35615;41.410;2.194;2022-07-22T03:32:33;17.45;;;9.98;;
49396;SDS011;35615;41.410;2.194;2022-07-22T03:35:03;18.98;;;10.10;;
49396;SDS011;35615;41.410;2.194;2022-07-22T03:37:38;15.18;;;10.38;;
49396;SDS011;35615;41.410;2.194;2022-07-22T03:40:07;18.27;;;11.20;;
49396;SDS011;35615;41.410;2.194;2022-07-22T03:42:38;16.92;;;9.85;;
49396;SDS011;35615;41.410;2.194;2022-07-22T03:45:12;23.65;;;10.15;;
49396;SDS011;35615;41.410;2.194;2022-07-22T03:47:40;16.40;;;10.15;;
49396;SDS011;35615;41.410;2.194;2022-07-22T03:50:08;17.40;;;11.00;;
49396;SDS011;35615;41.410;2.194;2022-07-22T03:52:36;15.63;;;10.00;;
49396;SDS011;35615;41.410;2.194;2022-07-22T03:55:07;13.27;;;10.35;;
49396;SDS011;35615;41.410;2.194;2022-07-22T03:57:35;15.65;;;10.45;;
49396;SDS011;35615;41.410;2.194;2022-07-22T04:00:12;19.80;;;11.13;;
49396;SDS011;35615;41.410;2.194;2022-07-22T04:02:41;18.17;;;11.05;;
49396;SDS011;35615;41.410;2.194;2022-07-22T04:07:42;17.15;;;9.88;;
49396;SDS011;35615;41.410;2.194;2022-07-22T04:10:10;16.95;;;10.45;;
49396;SDS011;35615;41.410;2.194;2022-07-22T04:12:41;21.35;;;11.10;;
49396;SDS011;35615;41.410;2.194;2022-07-22T04:15:17;17.48;;;10.85;;
49396;SDS011;35615;41.410;2.194;2022-07-22T04:17:44;20.80;;;10.95;;
49396;SDS011;35615;41.410;2.194;2022-07-22T04:20:11;18.83;;;10.43;;
49396;SDS011;35615;41.410;2.194;2022-07-22T04:22:59;21.20;;;10.57;;
49396;SDS011;35615;41.410;2.194;2022-07-22T04:25:29;19.63;;;11.43;;
49396;SDS011;35615;41.410;2.194;2022-07-22T04:27:57;19.52;;;10.80;;
49396;SDS011;35615;41.410;2.194;2022-07-22T04:30:24;18.08;;;10.45;;
49396;SDS011;35615;41.410;2.194;2022-07-22T04:32:52;18.80;;;11.63;;
49396;SDS011;35615;41.410;2.194;2022-07-22T04:35:20;16.55;;;11.30;;
49396;SDS011;35615;41.410;2.194;2022-07-22T04:38:02;19.57;;;11.03;;
49396;SDS011;35615;41.410;2.194;2022-07-22T04:40:33;15.45;;;10.90;;
49396;SDS011;35615;41.410;2.194;2022-07-22T04:43:00;18.83;;;10.90;;
49396;SDS011;35615;41.410;2.194;2022-07-22T04:45:30;16.95;;;10.45;;
49396;SDS011;35615;41.410;2.194;2022-07-22T04:47:57;24.48;;;12.40;;
49396;SDS011;35615;41.410;2.194;2022-07-22T04:50:25;23.38;;;11.48;;
49396;SDS011;35615;41.410;2.194;2022-07-22T04:52:58;23.90;;;12.10;;
49396;SDS011;35615;41.410;2.194;2022-07-22T04:55:26;17.88;;;11.45;;
49396;SDS011;35615;41.410;2.194;2022-07-22T04:57:53;19.30;;;11.18;;
49396;SDS011;35615;41.410;2.194;2022-07-22T05:00:23;27.95;;;12.55;;
49396;SDS011;35615;41.410;2.194;2022-07-22T05:02:53;24.10;;;11.68;;
49396;SDS011;35615;41.410;2.194;2022-07-22T05:05:21;23.42;;;12.02;;
49396;SDS011;35615;41.410;2.194;2022-07-22T05:07:51;17.58;;;11.20;;
49396;SDS011;35615;41.410;2.194;2022-07-22T05:10:18;22.48;;;11.48;;
49396;SDS011;35615;41.410;2.194;2022-07-22T05:12:47;20.40;;;11.88;;
49396;SDS011;35615;41.410;2.194;2022-07-22T05:15:25;21.67;;;10.50;;
49396;SDS011;35615;41.410;2.194;2022-07-22T05:17:53;24.50;;;11.43;;
49396;SDS011;35615;41.410;2.194;2022-07-22T05:20:27;20.77;;;11.25;;
49396;SDS011;35615;41.410;2.194;2022-07-22T05:22:54;18.67;;;9.57;;
49396;SDS011;35615;41.410;2.194;2022-07-22T05:25:31;20.08;;;10.63;;
49396;SDS011;35615;41.410;2.194;2022-07-22T05:27:58;43.13;;;13.00;;
49396;SDS011;35615;41.410;2.194;2022-07-22T05:30:35;16.40;;;10.48;;
49396;SDS011;35615;41.410;2.194;2022-07-22T05:33:09;20.83;;;11.23;;
49396;SDS011;35615;41.410;2.194;2022-07-22T05:35:56;22.10;;;10.98;;
49396;SDS011;35615;41.410;2.194;2022-07-22T05:38:31;22.17;;;11.15;;
49396;SDS011;35615;41.410;2.194;2022-07-22T05:41:00;14.80;;;10.20;;
49396;SDS011;35615;41.410;2.194;2022-07-22T05:43:28;23.58;;;10.18;;
49396;SDS011;35615;41.410;2.194;2022-07-22T05:45:56;20.13;;;11.10;;
49396;SDS011;35615;41.410;2.194;2022-07-22T05:48:24;25.45;;;11.25;;
49396;SDS011;35615;41.410;2.194;2022-07-22T05:50:51;19.33;;;10.70;;
49396;SDS011;35615;41.410;2.194;2022-07-22T05:53:19;18.75;;;10.77;;
49396;SDS011;35615;41.410;2.194;2022-07-22T05:55:47;22.30;;;10.38;;
49396;SDS011;35615;41.410;2.194;2022-07-22T05:58:14;21.40;;;10.15;;
49396;SDS011;35615;41.410;2.194;2022-07-22T06:00:42;24.10;;;11.43;;
49396;SDS011;35615;41.410;2.194;2022-07-22T06:03:12;29.42;;;11.00;;
49396;SDS011;35615;41.410;2.194;2022-07-22T06:05:44;16.45;;;10.13;;
49396;SDS011;35615;41.410;2.194;2022-07-22T06:08:12;20.40;;;10.85;;
49396;SDS011;35615;41.410;2.194;2022-07-22T06:10:43;20.15;;;11.35;;
49396;SDS011;35615;41.410;2.194;2022-07-22T06:13:13;20.73;;;11.45;;
49396;SDS011;35615;41.410;2.194;2022-07-22T06:15:41;24.63;;;11.27;;
49396;SDS011;35615;41.410;2.194;2022-07-22T06:18:10;19.45;;;10.85;;
49396;SDS011;35615;41.410;2.194;2022-07-22T06:20:37;22.27;;;10.40;;
49396;SDS011;35615;41.410;2.194;2022-07-22T06:23:08;20.65;;;10.60;;
49396;SDS011;35615;41.410;2.194;2022-07-22T06:25:35;23.88;;;10.32;;
49396;SDS011;35615;41.410;2.194;2022-07-22T06:28:15;30.92;;;11.45;;
49396;SDS011;35615;41.410;2.194;2022-07-22T06:30:43;22.83;;;10.63;;
49396;SDS011;35615;41.410;2.194;2022-07-22T06:33:12;24.50;;;10.98;;
49396;SDS011;35615;41.410;2.194;2022-07-22T06:35:45;24.27;;;11.50;;
49396;SDS011;35615;41.410;2.194;2022-07-22T06:38:12;19.10;;;11.05;;
49396;SDS011;35615;41.410;2.194;2022-07-22T06:41:21;26.73;;;11.23;;
49396;SDS011;35615;41.410;2.194;2022-07-22T06:44:12;27.85;;;12.10;;
49396;SDS011;35615;41.410;2.194;2022-07-22T06:47:09;37.03;;;11.40;;
49396;SDS011;35615;41.410;2.194;2022-07-22T06:49:37;28.45;;;12.38;;
49396;SDS011;35615;41.410;2.194;2022-07-22T06:52:05;30.77;;;12.95;;
49396;SDS011;35615;41.410;2.194;2022-07-22T06:54:32;33.53;;;13.50;;
49396;SDS011;35615;41.410;2.194;2022-07-22T06:57:01;37.65;;;12.20;;
49396;SDS011;35615;41.410;2.194;2022-07-22T06:59:33;33.47;;;12.18;;
49396;SDS011;35615;41.410;2.194;2022-07-22T07:02:07;29.67;;;12.02;;
49396;SDS011;35615;41.410;2.194;2022-07-22T07:04:37;27.98;;;12.13;;
49396;SDS011;35615;41.410;2.194;2022-07-22T07:07:08;18.23;;;10.57;;
49396;SDS011;35615;41.410;2.194;2022-07-22T07:09:57;23.08;;;10.90;;
49396;SDS011;35615;41.410;2.194;2022-07-22T07:12:39;27.80;;;11.07;;
49396;SDS011;35615;41.410;2.194;2022-07-22T07:15:07;35.58;;;12.65;;
49396;SDS011;35615;41.410;2.194;2022-07-22T07:18:00;29.33;;;11.70;;
49396;SDS011;35615;41.410;2.194;2022-07-22T07:20:27;23.08;;;11.55;;
49396;SDS011;35615;41.410;2.194;2022-07-22T07:22:55;40.00;;;10.88;;
49396;SDS011;35615;41.410;2.194;2022-07-22T07:25:24;30.50;;;10.10;;
49396;SDS011;35615;41.410;2.194;2022-07-22T07:27:54;20.92;;;10.88;;
49396;SDS011;35615;41.410;2.194;2022-07-22T07:30:45;21.75;;;10.27;;
49396;SDS011;35615;41.410;2.194;2022-07-22T07:33:13;25.02;;;10.90;;
49396;SDS011;35615;41.410;2.194;2022-07-22T07:35:40;22.13;;;9.73;;
49396;SDS011;35615;41.410;2.194;2022-07-22T07:38:08;20.58;;;8.85;;
49396;SDS011;35615;41.410;2.194;2022-07-22T07:40:40;17.75;;;7.03;;
49396;SDS011;35615;41.410;2.194;2022-07-22T07:43:11;13.68;;;6.80;;
49396;SDS011;35615;41.410;2.194;2022-07-22T07:45:42;9.30;;;5.93;;
49396;SDS011;35615;41.410;2.194;2022-07-22T07:48:14;14.55;;;6.28;;
49396;SDS011;35615;41.410;2.194;2022-07-22T07:50:41;13.75;;;7.00;;
49396;SDS011;35615;41.410;2.194;2022-07-22T07:53:12;17.20;;;6.55;;
49396;SDS011;35615;41.410;2.194;2022-07-22T07:55:44;11.80;;;6.20;;
49396;SDS011;35615;41.410;2.194;2022-07-22T07:58:12;17.10;;;6.18;;
49396;SDS011;35615;41.410;2.194;2022-07-22T08:00:40;9.23;;;7.13;;
49396;SDS011;35615;41.410;2.194;2022-07-22T08:03:11;16.23;;;6.78;;
49396;SDS011;35615;41.410;2.194;2022-07-22T08:05:39;18.75;;;6.95;;
49396;SDS011;35615;41.410;2.194;2022-07-22T08:08:19;13.60;;;6.35;;
49396;SDS011;35615;41.410;2.194;2022-07-22T08:10:51;15.38;;;6.72;;
49396;SDS011;35615;41.410;2.194;2022-07-22T08:13:31;8.15;;;5.97;;
49396;SDS011;35615;41.410;2.194;2022-07-22T08:16:22;12.32;;;5.72;;
49396;SDS011;35615;41.410;2.194;2022-07-22T08:18:51;12.27;;;5.72;;
49396;SDS011;35615;41.410;2.194;2022-07-22T08:21:19;17.17;;;6.75;;
49396;SDS011;35615;41.410;2.194;2022-07-22T08:24:09;16.67;;;6.43;;
49396;SDS011;35615;41.410;2.194;2022-07-22T08:26:38;10.88;;;6.88;;
49396;SDS011;35615;41.410;2.194;2022-07-22T08:29:06;17.98;;;6.97;;
49396;SDS011;35615;41.410;2.194;2022-07-22T08:31:36;10.35;;;6.55;;
49396;SDS011;35615;41.410;2.194;2022-07-22T08:34:08;15.52;;;6.93;;
49396;SDS011;35615;41.410;2.194;2022-07-22T08:36:36;14.00;;;7.15;;
49396;SDS011;35615;41.410;2.194;2022-07-22T08:39:04;19.63;;;7.28;;
49396;SDS011;35615;41.410;2.194;2022-07-22T08:41:34;22.52;;;7.70;;
49396;SDS011;35615;41.410;2.194;2022-07-22T08:44:03;15.85;;;8.50;;
49396;SDS011;35615;41.410;2.194;2022-07-22T08:46:34;13.20;;;8.02;;
49396;SDS011;35615;41.410;2.194;2022-07-22T08:49:20;21.35;;;9.80;;
49396;SDS011;35615;41.410;2.194;2022-07-22T08:52:19;18.80;;;9.15;;
49396;SDS011;35615;41.410;2.194;2022-07-22T08:54:48;16.88;;;9.02;;
49396;SDS011;35615;41.410;2.194;2022-07-22T08:57:17;20.73;;;9.15;;
49396;SDS011;35615;41.410;2.194;2022-07-22T08:59:52;17.75;;;8.65;;
49396;SDS011;35615;41.410;2.194;2022-07-22T09:02:21;18.33;;;10.10;;
49396;SDS011;35615;41.410;2.194;2022-07-22T09:07:33;14.25;;;8.73;;
49396;SDS011;35615;41.410;2.194;2022-07-22T09:10:12;14.45;;;8.82;;
49396;SDS011;35615;41.410;2.194;2022-07-22T09:13:05;16.70;;;8.18;;
49396;SDS011;35615;41.410;2.194;2022-07-22T09:15:52;16.88;;;8.13;;
49396;SDS011;35615;41.410;2.194;2022-07-22T09:18:45;17.23;;;8.13;;
49396;SDS011;35615;41.410;2.194;2022-07-22T09:21:30;12.27;;;8.32;;
49396;SDS011;35615;41.410;2.194;2022-07-22T09:27:37;20.70;;;8.43;;
49396;SDS011;35615;41.410;2.194;2022-07-22T09:30:26;30.30;;;8.07;;
49396;SDS011;35615;41.410;2.194;2022-07-22T09:33:07;19.77;;;8.40;;
49396;SDS011;35615;41.410;2.194;2022-07-22T09:35:43;13.20;;;7.70;;
49396;SDS011;35615;41.410;2.194;2022-07-22T09:38:19;13.80;;;7.57;;
49396;SDS011;35615;41.410;2.194;2022-07-22T09:40:56;16.30;;;7.65;;
49396;SDS011;35615;41.410;2.194;2022-07-22T09:43:23;12.77;;;6.57;;
49396;SDS011;35615;41.410;2.194;2022-07-22T09:45:55;14.27;;;7.28;;
49396;SDS011;35615;41.410;2.194;2022-07-22T09:49:02;12.80;;;7.03;;
49396;SDS011;35615;41.410;2.194;2022-07-22T09:51:45;11.02;;;6.70;;
49396;SDS011;35615;41.410;2.194;2022-07-22T09:54:35;12.35;;;7.07;;
49396;SDS011;35615;41.410;2.194;2022-07-22T09:57:04;18.83;;;6.85;;
49396;SDS011;35615;41.410;2.194;2022-07-22T09:59:35;14.95;;;6.80;;
49396;SDS011;35615;41.410;2.194;2022-07-22T10:02:21;11.02;;;6.57;;
49396;SDS011;35615;41.410;2.194;2022-07-22T10:04:56;9.98;;;6.95;;
49396;SDS011;35615;41.410;2.194;2022-07-22T10:07:26;11.45;;;6.40;;
49396;SDS011;35615;41.410;2.194;2022-07-22T10:09:56;10.68;;;7.85;;
49396;SDS011;35615;41.410;2.194;2022-07-22T10:12:26;15.85;;;5.32;;
49396;SDS011;35615;41.410;2.194;2022-07-22T10:14:54;21.10;;;6.78;;
49396;SDS011;35615;41.410;2.194;2022-07-22T10:17:21;9.73;;;6.68;;
49396;SDS011;35615;41.410;2.194;2022-07-22T10:19:50;12.88;;;5.75;;
49396;SDS011;35615;41.410;2.194;2022-07-22T10:25:11;14.82;;;5.15;;
49396;SDS011;35615;41.410;2.194;2022-07-22T10:27:43;18.98;;;5.63;;
49396;SDS011;35615;41.410;2.194;2022-07-22T10:30:20;8.48;;;5.13;;
49396;SDS011;35615;41.410;2.194;2022-07-22T10:38:11;14.43;;;6.03;;
49396;SDS011;35615;41.410;2.194;2022-07-22T10:41:00;12.88;;;5.85;;
49396;SDS011;35615;41.410;2.194;2022-07-22T10:46:14;18.70;;;6.28;;
49396;SDS011;35615;41.410;2.194;2022-07-22T10:51:10;20.83;;;6.10;;
49396;SDS011;35615;41.410;2.194;2022-07-22T10:53:58;10.18;;;5.45;;
49396;SDS011;35615;41.410;2.194;2022-07-22T10:59:09;22.13;;;6.68;;
49396;SDS011;35615;41.410;2.194;2022-07-22T11:01:46;11.93;;;5.90;;
49396;SDS011;35615;41.410;2.194;2022-07-22T11:04:19;12.40;;;5.78;;
49396;SDS011;35615;41.410;2.194;2022-07-22T11:06:50;13.05;;;6.30;;
49396;SDS011;35615;41.410;2.194;2022-07-22T11:09:19;12.30;;;5.88;;
49396;SDS011;35615;41.410;2.194;2022-07-22T11:11:50;13.88;;;5.95;;
49396;SDS011;35615;41.410;2.194;2022-07-22T11:16:58;20.98;;;6.13;;
49396;SDS011;35615;41.410;2.194;2022-07-22T11:19:50;13.73;;;6.57;;
49396;SDS011;35615;41.410;2.194;2022-07-22T11:22:18;10.32;;;6.03;;
49396;SDS011;35615;41.410;2.194;2022-07-22T11:24:49;11.00;;;5.50;;
49396;SDS011;35615;41.410;2.194;2022-07-22T11:27:19;14.68;;;6.20;;
49396;SDS011;35615;41.410;2.194;2022-07-22T11:29:52;14.95;;;6.75;;
49396;SDS011;35615;41.410;2.194;2022-07-22T11:35:01;8.48;;;5.65;;
49396;SDS011;35615;41.410;2.194;2022-07-22T11:37:30;12.68;;;6.25;;
49396;SDS011;35615;41.410;2.194;2022-07-22T11:40:00;17.10;;;6.53;;
49396;SDS011;35615;41.410;2.194;2022-07-22T11:42:35;8.75;;;6.13;;
49396;SDS011;35615;41.410;2.194;2022-07-22T11:45:03;11.52;;;5.60;;
49396;SDS011;35615;41.410;2.194;2022-07-22T11:47:31;9.90;;;5.63;;
49396;SDS011;35615;41.410;2.194;2022-07-22T11:49:59;17.35;;;5.93;;
49396;SDS011;35615;41.410;2.194;2022-07-22T11:52:27;12.15;;;5.82;;
49396;SDS011;35615;41.410;2.194;2022-07-22T11:54:55;14.35;;;6.15;;
49396;SDS011;35615;41.410;2.194;2022-07-22T11:57:23;7.80;;;5.70;;
49396;SDS011;35615;41.410;2.194;2022-07-22T11:59:53;14.13;;;5.72;;
49396;SDS011;35615;41.410;2.194;2022-07-22T12:02:29;13.68;;;5.97;;
49396;SDS011;35615;41.410;2.194;2022-07-22T12:05:05;9.82;;;5.32;;
49396;SDS011;35615;41.410;2.194;2022-07-22T12:07:54;13.55;;;6.00;;
49396;SDS011;35615;41.410;2.194;2022-07-22T12:10:28;17.17;;;6.10;;
49396;SDS011;35615;41.410;2.194;2022-07-22T12:12:55;18.27;;;6.13;;
49396;SDS011;35615;41.410;2.194;2022-07-22T12:15:22;14.07;;;6.43;;
49396;SDS011;35615;41.410;2.194;2022-07-22T12:18:22;15.57;;;5.57;;
49396;SDS011;35615;41.410;2.194;2022-07-22T12:20:54;15.32;;;6.43;;
49396;SDS011;35615;41.410;2.194;2022-07-22T12:23:24;11.85;;;6.15;;
49396;SDS011;35615;41.410;2.194;2022-07-22T12:26:00;23.52;;;7.68;;
49396;SDS011;35615;41.410;2.194;2022-07-22T12:28:31;16.55;;;7.82;;
49396;SDS011;35615;41.410;2.194;2022-07-22T12:30:58;13.63;;;6.55;;
49396;SDS011;35615;41.410;2.194;2022-07-22T12:33:26;14.15;;;7.25;;
49396;SDS011;35615;41.410;2.194;2022-07-22T12:38:34;13.38;;;6.47;;
49396;SDS011;35615;41.410;2.194;2022-07-22T12:41:25;11.48;;;5.47;;
49396;SDS011;35615;41.410;2.194;2022-07-22T12:43:53;13.07;;;5.60;;
49396;SDS011;35615;41.410;2.194;2022-07-22T12:46:24;12.73;;;6.55;;
49396;SDS011;35615;41.410;2.194;2022-07-22T12:48:52;7.28;;;5.25;;
49396;SDS011;35615;41.410;2.194;2022-07-22T12:51:21;16.50;;;6.10;;
49396;SDS011;35615;41.410;2.194;2022-07-22T12:53:48;9.48;;;5.38;;
49396;SDS011;35615;41.410;2.194;2022-07-22T12:56:16;9.32;;;5.63;;
49396;SDS011;35615;41.410;2.194;2022-07-22T12:58:47;12.35;;;5.70;;
49396;SDS011;35615;41.410;2.194;2022-07-22T13:01:15;11.02;;;5.82;;
49396;SDS011;35615;41.410;2.194;2022-07-22T13:03:48;12.27;;;4.88;;
49396;SDS011;35615;41.410;2.194;2022-07-22T13:06:16;13.05;;;6.25;;
49396;SDS011;35615;41.410;2.194;2022-07-22T13:08:44;9.38;;;5.55;;
49396;SDS011;35615;41.410;2.194;2022-07-22T13:11:13;10.00;;;5.80;;
49396;SDS011;35615;41.410;2.194;2022-07-22T13:13:41;8.65;;;5.15;;
49396;SDS011;35615;41.410;2.194;2022-07-22T13:16:09;11.18;;;6.13;;
49396;SDS011;35615;41.410;2.194;2022-07-22T13:18:38;14.10;;;6.57;;
49396;SDS011;35615;41.410;2.194;2022-07-22T13:21:06;13.43;;;5.47;;
49396;SDS011;35615;41.410;2.194;2022-07-22T13:23:34;10.32;;;5.50;;
49396;SDS011;35615;41.410;2.194;2022-07-22T13:26:04;12.10;;;6.60;;
49396;SDS011;35615;41.410;2.194;2022-07-22T13:28:31;16.33;;;6.30;;
49396;SDS011;35615;41.410;2.194;2022-07-22T13:31:02;15.43;;;5.53;;
49396;SDS011;35615;41.410;2.194;2022-07-22T13:33:29;9.95;;;5.57;;
49396;SDS011;35615;41.410;2.194;2022-07-22T13:36:01;14.05;;;5.78;;
49396;SDS011;35615;41.410;2.194;2022-07-22T13:38:33;14.40;;;5.80;;
49396;SDS011;35615;41.410;2.194;2022-07-22T13:41:00;9.38;;;6.13;;
49396;SDS011;35615;41.410;2.194;2022-07-22T13:43:27;21.02;;;6.80;;
49396;SDS011;35615;41.410;2.194;2022-07-22T13:45:56;12.27;;;5.88;;
49396;SDS011;35615;41.410;2.194;2022-07-22T13:48:23;13.77;;;6.47;;
49396;SDS011;35615;41.410;2.194;2022-07-22T13:50:53;8.82;;;5.68;;
49396;SDS011;35615;41.410;2.194;2022-07-22T13:53:21;15.20;;;5.80;;
49396;SDS011;35615;41.410;2.194;2022-07-22T13:55:49;16.05;;;6.30;;
49396;SDS011;35615;41.410;2.194;2022-07-22T13:58:18;15.73;;;6.40;;
49396;SDS011;35615;41.410;2.194;2022-07-22T14:00:45;11.73;;;6.15;;
49396;SDS011;35615;41.410;2.194;2022-07-22T14:03:12;12.23;;;5.55;;
49396;SDS011;35615;41.410;2.194;2022-07-22T14:05:39;11.82;;;5.20;;
49396;SDS011;35615;41.410;2.194;2022-07-22T14:08:06;7.75;;;4.93;;
49396;SDS011;35615;41.410;2.194;2022-07-22T14:10:34;17.20;;;5.72;;
49396;SDS011;35615;41.410;2.194;2022-07-22T14:13:02;11.20;;;4.90;;
49396;SDS011;35615;41.410;2.194;2022-07-22T14:15:37;5.55;;;4.80;;
49396;SDS011;35615;41.410;2.194;2022-07-22T14:18:08;12.00;;;5.65;;
49396;SDS011;35615;41.410;2.194;2022-07-22T14:20:44;10.80;;;5.50;;
49396;SDS011;35615;41.410;2.194;2022-07-22T14:23:12;11.27;;;5.03;;
49396;SDS011;35615;41.410;2.194;2022-07-22T14:25:55;13.13;;;5.20;;
49396;SDS011;35615;41.410;2.194;2022-07-22T14:28:46;9.25;;;5.45;;
49396;SDS011;35615;41.410;2.194;2022-07-22T14:31:31;9.68;;;5.20;;
49396;SDS011;35615;41.410;2.194;2022-07-22T14:34:02;8.35;;;4.95;;
49396;SDS011;35615;41.410;2.194;2022-07-22T14:36:41;9.93;;;5.18;;
49396;SDS011;35615;41.410;2.194;2022-07-22T14:39:11;10.60;;;4.53;;
49396;SDS011;35615;41.410;2.194;2022-07-22T14:41:47;13.48;;;4.85;;
49396;SDS011;35615;41.410;2.194;2022-07-22T14:44:25;12.85;;;4.85;;
49396;SDS011;35615;41.410;2.194;2022-07-22T14:46:58;8.10;;;5.70;;
49396;SDS011;35615;41.410;2.194;2022-07-22T14:49:35;9.30;;;5.00;;
49396;SDS011;35615;41.410;2.194;2022-07-22T14:52:11;9.02;;;5.05;;
49396;SDS011;35615;41.410;2.194;2022-07-22T14:54:45;10.32;;;4.72;;
49396;SDS011;35615;41.410;2.194;2022-07-22T14:57:17;8.85;;;5.13;;
49396;SDS011;35615;41.410;2.194;2022-07-22T15:02:18;11.02;;;4.90;;
49396;SDS011;35615;41.410;2.194;2022-07-22T15:04:49;6.22;;;4.68;;
49396;SDS011;35615;41.410;2.194;2022-07-22T15:07:19;5.57;;;5.07;;
49396;SDS011;35615;41.410;2.194;2022-07-22T15:10:00;11.45;;;4.95;;
49396;SDS011;35615;41.410;2.194;2022-07-22T15:12:42;10.18;;;4.65;;
49396;SDS011;35615;41.410;2.194;2022-07-22T15:15:15;5.75;;;4.88;;
49396;SDS011;35615;41.410;2.194;2022-07-22T15:17:47;9.23;;;5.45;;
49396;SDS011;35615;41.410;2.194;2022-07-22T15:20:16;5.47;;;4.28;;
49396;SDS011;35615;41.410;2.194;2022-07-22T15:22:44;15.18;;;4.60;;
49396;SDS011;35615;41.410;2.194;2022-07-22T15:25:16;10.77;;;5.05;;
49396;SDS011;35615;41.410;2.194;2022-07-22T15:27:46;10.15;;;5.00;;
49396;SDS011;35615;41.410;2.194;2022-07-22T15:30:36;6.03;;;4.32;;
49396;SDS011;35615;41.410;2.194;2022-07-22T15:33:04;9.20;;;4.72;;
49396;SDS011;35615;41.410;2.194;2022-07-22T15:35:40;12.20;;;5.47;;
49396;SDS011;35615;41.410;2.194;2022-07-22T15:38:09;8.40;;;4.50;;
49396;SDS011;35615;41.410;2.194;2022-07-22T15:40:40;6.18;;;4.47;;
49396;SDS011;35615;41.410;2.194;2022-07-22T15:43:08;7.88;;;4.47;;
49396;SDS011;35615;41.410;2.194;2022-07-22T15:45:42;11.55;;;4.68;;
49396;SDS011;35615;41.410;2.194;2022-07-22T15:48:13;7.65;;;4.65;;
49396;SDS011;35615;41.410;2.194;2022-07-22T15:50:43;7.63;;;4.75;;
49396;SDS011;35615;41.410;2.194;2022-07-22T15:53:12;12.25;;;4.65;;
49396;SDS011;35615;41.410;2.194;2022-07-22T15:55:42;12.07;;;5.13;;